Island Park, New York
Current Conditions -  °F | °C
As of 10:51 AM on Monday 22 Dec 2014 (Local Time) from KJFK Reporting Station
Overcast Overcast  
Wind Chill: 40°   Ceiling: 1300
Heat Index: 43°   Visibility: 10mi
Dew Point: 36°   Wind: 5mph
Humidity: 76%   Direction: 10°N
Pressure: 30.33"   Gusts: NA
Location:  40.61°N, 73.65°W
Report Text: KJFK 221551Z 01004KT 10SM OVC013 06/02 A3033 RMK AO2 SLP269 T00610022 $
Loading
Personal Weather Stations






























Interactive Weather Map New forecast layout! Learn more

10-Day Weather Forecast

Advertisements
Track Severe Weather on mobile